sensor_id;sensor_type;location;lat;lon;timestamp;P1;durP1;ratioP1;P2;durP2;ratioP2
25435;SDS011;13363;52.772;-3.890;2023-03-15T00:00:28;1.20;;;1.10;;
25435;SDS011;13363;52.772;-3.890;2023-03-15T00:02:54;1.10;;;1.00;;
25435;SDS011;13363;52.772;-3.890;2023-03-15T00:05:20;75.67;;;4.17;;
25435;SDS011;13363;52.772;-3.890;2023-03-15T00:07:45;11.43;;;2.10;;
25435;SDS011;13363;52.772;-3.890;2023-03-15T00:10:11;8.07;;;1.57;;
25435;SDS011;13363;52.772;-3.890;2023-03-15T00:12:37;17.87;;;2.20;;
25435;SDS011;13363;52.772;-3.890;2023-03-15T00:15:03;2.20;;;1.43;;
25435;SDS011;13363;52.772;-3.890;2023-03-15T00:17:29;1.50;;;1.40;;
25435;SDS011;13363;52.772;-3.890;2023-03-15T00:19:58;3.63;;;1.30;;
25435;SDS011;13363;52.772;-3.890;2023-03-15T00:22:24;3.47;;;1.60;;
25435;SDS011;13363;52.772;-3.890;2023-03-15T00:24:50;2.60;;;1.10;;
25435;SDS011;13363;52.772;-3.890;2023-03-15T00:27:16;1.57;;;1.03;;
25435;SDS011;13363;52.772;-3.890;2023-03-15T00:29:41;1.27;;;1.17;;
25435;SDS011;13363;52.772;-3.890;2023-03-15T00:32:07;147.97;;;9.97;;
25435;SDS011;13363;52.772;-3.890;2023-03-15T00:34:32;59.87;;;5.47;;
25435;SDS011;13363;52.772;-3.890;2023-03-15T00:36:58;95.60;;;6.57;;
25435;SDS011;13363;52.772;-3.890;2023-03-15T00:39:24;57.53;;;4.00;;
25435;SDS011;13363;52.772;-3.890;2023-03-15T00:41:50;6.53;;;1.97;;
25435;SDS011;13363;52.772;-3.890;2023-03-15T00:44:20;3.03;;;1.10;;
25435;SDS011;13363;52.772;-3.890;2023-03-15T00:46:49;1.00;;;1.00;;
25435;SDS011;13363;52.772;-3.890;2023-03-15T00:49:15;66.80;;;4.73;;
25435;SDS011;13363;52.772;-3.890;2023-03-15T00:51:40;2.60;;;1.50;;
25435;SDS011;13363;52.772;-3.890;2023-03-15T00:54:06;1.70;;;1.30;;
25435;SDS011;13363;52.772;-3.890;2023-03-15T00:56:31;2.57;;;1.00;;
25435;SDS011;13363;52.772;-3.890;2023-03-15T00:58:57;1.00;;;0.90;;
25435;SDS011;13363;52.772;-3.890;2023-03-15T01:01:24;1.40;;;1.03;;
25435;SDS011;13363;52.772;-3.890;2023-03-15T01:03:51;1.00;;;1.00;;
25435;SDS011;13363;52.772;-3.890;2023-03-15T01:06:22;2.97;;;1.10;;
25435;SDS011;13363;52.772;-3.890;2023-03-15T01:08:49;4.33;;;1.63;;
25435;SDS011;13363;52.772;-3.890;2023-03-15T01:11:22;2.27;;;1.50;;
25435;SDS011;13363;52.772;-3.890;2023-03-15T01:13:50;1.50;;;1.13;;
25435;SDS011;13363;52.772;-3.890;2023-03-15T01:16:17;2.90;;;0.70;;
25435;SDS011;13363;52.772;-3.890;2023-03-15T01:18:44;1.33;;;1.00;;
25435;SDS011;13363;52.772;-3.890;2023-03-15T01:21:10;1.80;;;1.00;;
25435;SDS011;13363;52.772;-3.890;2023-03-15T01:23:38;13.00;;;1.83;;
25435;SDS011;13363;52.772;-3.890;2023-03-15T01:26:06;1.07;;;0.90;;
25435;SDS011;13363;52.772;-3.890;2023-03-15T01:28:34;1.33;;;1.10;;
25435;SDS011;13363;52.772;-3.890;2023-03-15T01:31:00;1.37;;;0.80;;
25435;SDS011;13363;52.772;-3.890;2023-03-15T01:33:26;1.27;;;0.90;;
25435;SDS011;13363;52.772;-3.890;2023-03-15T01:36:02;1.20;;;1.20;;
25435;SDS011;13363;52.772;-3.890;2023-03-15T01:38:30;1.17;;;0.90;;
25435;SDS011;13363;52.772;-3.890;2023-03-15T01:40:56;1.20;;;1.10;;
25435;SDS011;13363;52.772;-3.890;2023-03-15T01:43:23;2.43;;;1.03;;
25435;SDS011;13363;52.772;-3.890;2023-03-15T01:46:11;1.30;;;1.07;;
25435;SDS011;13363;52.772;-3.890;2023-03-15T01:51:41;0.87;;;0.83;;
25435;SDS011;13363;52.772;-3.890;2023-03-15T01:54:27;1.00;;;1.00;;
25435;SDS011;13363;52.772;-3.890;2023-03-15T02:00:14;1.23;;;1.13;;
25435;SDS011;13363;52.772;-3.890;2023-03-15T02:02:48;0.60;;;0.60;;
25435;SDS011;13363;52.772;-3.890;2023-03-15T02:05:19;2.73;;;1.10;;
25435;SDS011;13363;52.772;-3.890;2023-03-15T02:07:47;0.90;;;0.90;;
25435;SDS011;13363;52.772;-3.890;2023-03-15T02:10:19;0.90;;;0.87;;
25435;SDS011;13363;52.772;-3.890;2023-03-15T02:13:02;0.80;;;0.80;;
25435;SDS011;13363;52.772;-3.890;2023-03-15T02:15:28;1.00;;;1.00;;
25435;SDS011;13363;52.772;-3.890;2023-03-15T02:17:55;1.43;;;1.20;;
25435;SDS011;13363;52.772;-3.890;2023-03-15T02:22:59;1.43;;;1.33;;
25435;SDS011;13363;52.772;-3.890;2023-03-15T02:28:03;2.73;;;1.10;;
25435;SDS011;13363;52.772;-3.890;2023-03-15T02:30:32;3.73;;;1.10;;
25435;SDS011;13363;52.772;-3.890;2023-03-15T02:32:58;0.93;;;0.83;;
25435;SDS011;13363;52.772;-3.890;2023-03-15T02:35:28;2.30;;;1.07;;
25435;SDS011;13363;52.772;-3.890;2023-03-15T02:37:55;1.13;;;0.97;;
25435;SDS011;13363;52.772;-3.890;2023-03-15T02:40:22;1.00;;;0.90;;
25435;SDS011;13363;52.772;-3.890;2023-03-15T02:42:52;3.23;;;1.10;;
25435;SDS011;13363;52.772;-3.890;2023-03-15T02:45:21;1.00;;;1.00;;
25435;SDS011;13363;52.772;-3.890;2023-03-15T02:47:49;1.17;;;1.10;;
25435;SDS011;13363;52.772;-3.890;2023-03-15T02:50:15;0.93;;;0.93;;
25435;SDS011;13363;52.772;-3.890;2023-03-15T02:52:41;0.90;;;0.90;;
25435;SDS011;13363;52.772;-3.890;2023-03-15T02:55:07;1.07;;;1.07;;
25435;SDS011;13363;52.772;-3.890;2023-03-15T02:57:34;2.20;;;1.00;;
25435;SDS011;13363;52.772;-3.890;2023-03-15T03:00:00;0.93;;;0.93;;
25435;SDS011;13363;52.772;-3.890;2023-03-15T03:02:36;2.50;;;1.10;;
25435;SDS011;13363;52.772;-3.890;2023-03-15T03:05:02;3.10;;;1.13;;
25435;SDS011;13363;52.772;-3.890;2023-03-15T03:07:27;0.80;;;0.73;;
25435;SDS011;13363;52.772;-3.890;2023-03-15T03:09:53;1.10;;;1.00;;
25435;SDS011;13363;52.772;-3.890;2023-03-15T03:12:19;2.17;;;1.00;;
25435;SDS011;13363;52.772;-3.890;2023-03-15T03:14:44;2.60;;;0.97;;
25435;SDS011;13363;52.772;-3.890;2023-03-15T03:17:10;2.83;;;0.93;;
25435;SDS011;13363;52.772;-3.890;2023-03-15T03:19:36;1.13;;;1.07;;
25435;SDS011;13363;52.772;-3.890;2023-03-15T03:22:01;0.90;;;0.90;;
25435;SDS011;13363;52.772;-3.890;2023-03-15T03:24:28;3.10;;;1.07;;
25435;SDS011;13363;52.772;-3.890;2023-03-15T03:26:53;4.17;;;1.17;;
25435;SDS011;13363;52.772;-3.890;2023-03-15T03:29:22;0.90;;;0.90;;
25435;SDS011;13363;52.772;-3.890;2023-03-15T03:31:48;2.30;;;1.20;;
25435;SDS011;13363;52.772;-3.890;2023-03-15T03:34:14;1.53;;;1.00;;
25435;SDS011;13363;52.772;-3.890;2023-03-15T03:36:41;1.23;;;0.73;;
25435;SDS011;13363;52.772;-3.890;2023-03-15T03:39:07;1.33;;;1.03;;
25435;SDS011;13363;52.772;-3.890;2023-03-15T03:41:33;1.03;;;0.87;;
25435;SDS011;13363;52.772;-3.890;2023-03-15T03:43:59;0.90;;;0.90;;
25435;SDS011;13363;52.772;-3.890;2023-03-15T03:46:25;4.27;;;1.30;;
25435;SDS011;13363;52.772;-3.890;2023-03-15T03:48:52;0.90;;;0.90;;
25435;SDS011;13363;52.772;-3.890;2023-03-15T03:51:18;1.43;;;1.23;;
25435;SDS011;13363;52.772;-3.890;2023-03-15T03:53:44;1.30;;;1.20;;
25435;SDS011;13363;52.772;-3.890;2023-03-15T03:56:10;2.30;;;0.93;;
25435;SDS011;13363;52.772;-3.890;2023-03-15T03:58:35;4.43;;;1.23;;
25435;SDS011;13363;52.772;-3.890;2023-03-15T04:01:01;3.13;;;2.10;;
25435;SDS011;13363;52.772;-3.890;2023-03-15T04:03:28;0.73;;;0.73;;
25435;SDS011;13363;52.772;-3.890;2023-03-15T04:05:54;1.83;;;1.27;;
25435;SDS011;13363;52.772;-3.890;2023-03-15T04:08:21;0.93;;;0.93;;
25435;SDS011;13363;52.772;-3.890;2023-03-15T04:10:49;0.83;;;0.83;;
25435;SDS011;13363;52.772;-3.890;2023-03-15T04:13:16;1.23;;;0.83;;
25435;SDS011;13363;52.772;-3.890;2023-03-15T04:15:41;2.00;;;1.20;;
25435;SDS011;13363;52.772;-3.890;2023-03-15T04:18:07;2.10;;;1.27;;
25435;SDS011;13363;52.772;-3.890;2023-03-15T04:20:32;2.53;;;1.30;;
25435;SDS011;13363;52.772;-3.890;2023-03-15T04:22:58;3.90;;;1.27;;
25435;SDS011;13363;52.772;-3.890;2023-03-15T04:25:25;3.93;;;1.27;;
25435;SDS011;13363;52.772;-3.890;2023-03-15T04:27:58;1.03;;;0.93;;
25435;SDS011;13363;52.772;-3.890;2023-03-15T04:30:24;1.20;;;1.10;;
25435;SDS011;13363;52.772;-3.890;2023-03-15T04:32:53;1.03;;;0.90;;
25435;SDS011;13363;52.772;-3.890;2023-03-15T04:35:25;0.93;;;0.80;;
25435;SDS011;13363;52.772;-3.890;2023-03-15T04:37:52;1.13;;;0.97;;
25435;SDS011;13363;52.772;-3.890;2023-03-15T04:40:18;0.87;;;0.87;;
25435;SDS011;13363;52.772;-3.890;2023-03-15T04:42:44;0.97;;;0.87;;
25435;SDS011;13363;52.772;-3.890;2023-03-15T04:45:10;1.27;;;0.80;;
25435;SDS011;13363;52.772;-3.890;2023-03-15T04:47:36;1.43;;;1.33;;
25435;SDS011;13363;52.772;-3.890;2023-03-15T04:50:02;1.93;;;1.17;;
25435;SDS011;13363;52.772;-3.890;2023-03-15T04:52:28;1.33;;;1.23;;
25435;SDS011;13363;52.772;-3.890;2023-03-15T04:54:53;1.90;;;1.10;;
25435;SDS011;13363;52.772;-3.890;2023-03-15T04:57:19;1.47;;;1.10;;
25435;SDS011;13363;52.772;-3.890;2023-03-15T04:59:45;0.93;;;0.90;;
25435;SDS011;13363;52.772;-3.890;2023-03-15T05:02:10;1.33;;;1.23;;
25435;SDS011;13363;52.772;-3.890;2023-03-15T05:04:36;1.90;;;1.00;;
25435;SDS011;13363;52.772;-3.890;2023-03-15T05:07:02;0.93;;;0.93;;
25435;SDS011;13363;52.772;-3.890;2023-03-15T05:09:28;6.00;;;1.20;;
25435;SDS011;13363;52.772;-3.890;2023-03-15T05:11:54;1.10;;;1.00;;
25435;SDS011;13363;52.772;-3.890;2023-03-15T05:14:19;1.80;;;1.20;;
25435;SDS011;13363;52.772;-3.890;2023-03-15T05:16:45;1.00;;;0.90;;
25435;SDS011;13363;52.772;-3.890;2023-03-15T05:19:12;1.43;;;1.30;;
25435;SDS011;13363;52.772;-3.890;2023-03-15T05:21:37;2.33;;;1.17;;
25435;SDS011;13363;52.772;-3.890;2023-03-15T05:24:03;2.20;;;1.20;;
25435;SDS011;13363;52.772;-3.890;2023-03-15T05:26:29;0.93;;;0.90;;
25435;SDS011;13363;52.772;-3.890;2023-03-15T05:28:55;1.57;;;1.00;;
25435;SDS011;13363;52.772;-3.890;2023-03-15T05:31:20;1.60;;;1.23;;
25435;SDS011;13363;52.772;-3.890;2023-03-15T05:33:46;0.80;;;0.80;;
25435;SDS011;13363;52.772;-3.890;2023-03-15T05:36:12;1.87;;;1.10;;
25435;SDS011;13363;52.772;-3.890;2023-03-15T05:38:39;1.57;;;1.37;;
25435;SDS011;13363;52.772;-3.890;2023-03-15T05:41:06;1.20;;;1.10;;
25435;SDS011;13363;52.772;-3.890;2023-03-15T05:43:34;1.70;;;1.17;;
25435;SDS011;13363;52.772;-3.890;2023-03-15T05:46:00;2.80;;;1.13;;
25435;SDS011;13363;52.772;-3.890;2023-03-15T05:48:25;1.60;;;1.50;;
25435;SDS011;13363;52.772;-3.890;2023-03-15T05:50:51;1.33;;;1.03;;
25435;SDS011;13363;52.772;-3.890;2023-03-15T05:53:17;0.90;;;0.90;;
25435;SDS011;13363;52.772;-3.890;2023-03-15T05:55:43;3.27;;;1.20;;
25435;SDS011;13363;52.772;-3.890;2023-03-15T05:58:08;2.10;;;0.90;;
25435;SDS011;13363;52.772;-3.890;2023-03-15T06:00:34;1.33;;;1.23;;
25435;SDS011;13363;52.772;-3.890;2023-03-15T06:02:59;2.67;;;1.40;;
25435;SDS011;13363;52.772;-3.890;2023-03-15T06:05:25;1.47;;;0.87;;
25435;SDS011;13363;52.772;-3.890;2023-03-15T06:07:51;2.07;;;1.00;;
25435;SDS011;13363;52.772;-3.890;2023-03-15T06:10:17;3.00;;;0.83;;
25435;SDS011;13363;52.772;-3.890;2023-03-15T06:12:42;2.87;;;1.27;;
25435;SDS011;13363;52.772;-3.890;2023-03-15T06:15:09;1.80;;;1.30;;
25435;SDS011;13363;52.772;-3.890;2023-03-15T06:17:35;1.00;;;1.00;;
25435;SDS011;13363;52.772;-3.890;2023-03-15T06:20:00;1.23;;;0.80;;
25435;SDS011;13363;52.772;-3.890;2023-03-15T06:22:26;2.50;;;0.87;;
25435;SDS011;13363;52.772;-3.890;2023-03-15T06:24:52;3.20;;;0.83;;
25435;SDS011;13363;52.772;-3.890;2023-03-15T06:27:17;2.27;;;0.93;;
25435;SDS011;13363;52.772;-3.890;2023-03-15T06:29:46;2.87;;;1.07;;
25435;SDS011;13363;52.772;-3.890;2023-03-15T06:32:13;1.77;;;1.00;;
25435;SDS011;13363;52.772;-3.890;2023-03-15T06:34:38;0.80;;;0.70;;
25435;SDS011;13363;52.772;-3.890;2023-03-15T06:37:04;1.00;;;1.00;;
25435;SDS011;13363;52.772;-3.890;2023-03-15T06:39:30;1.00;;;1.00;;
25435;SDS011;13363;52.772;-3.890;2023-03-15T06:41:58;1.20;;;1.00;;
25435;SDS011;13363;52.772;-3.890;2023-03-15T06:44:26;1.00;;;1.00;;
25435;SDS011;13363;52.772;-3.890;2023-03-15T06:46:52;1.40;;;1.30;;
25435;SDS011;13363;52.772;-3.890;2023-03-15T06:49:18;0.70;;;0.70;;
25435;SDS011;13363;52.772;-3.890;2023-03-15T06:51:43;1.50;;;0.93;;
25435;SDS011;13363;52.772;-3.890;2023-03-15T06:54:09;1.60;;;0.80;;
25435;SDS011;13363;52.772;-3.890;2023-03-15T06:56:35;1.50;;;1.10;;
25435;SDS011;13363;52.772;-3.890;2023-03-15T06:59:01;0.80;;;0.80;;
25435;SDS011;13363;52.772;-3.890;2023-03-15T07:01:27;1.30;;;1.00;;
25435;SDS011;13363;52.772;-3.890;2023-03-15T07:03:53;0.80;;;0.80;;
25435;SDS011;13363;52.772;-3.890;2023-03-15T07:06:19;1.03;;;0.80;;
25435;SDS011;13363;52.772;-3.890;2023-03-15T07:08:44;1.33;;;1.23;;
25435;SDS011;13363;52.772;-3.890;2023-03-15T07:11:10;1.40;;;0.67;;
25435;SDS011;13363;52.772;-3.890;2023-03-15T07:13:37;1.33;;;0.90;;
25435;SDS011;13363;52.772;-3.890;2023-03-15T07:16:03;1.83;;;1.20;;
25435;SDS011;13363;52.772;-3.890;2023-03-15T07:18:28;1.23;;;1.13;;
25435;SDS011;13363;52.772;-3.890;2023-03-15T07:20:58;2.87;;;1.50;;
25435;SDS011;13363;52.772;-3.890;2023-03-15T07:23:25;1.23;;;1.03;;
25435;SDS011;13363;52.772;-3.890;2023-03-15T07:25:51;0.80;;;0.80;;
25435;SDS011;13363;52.772;-3.890;2023-03-15T07:28:18;4.83;;;1.20;;
25435;SDS011;13363;52.772;-3.890;2023-03-15T07:30:53;2.47;;;1.00;;
25435;SDS011;13363;52.772;-3.890;2023-03-15T07:33:24;1.47;;;0.93;;
25435;SDS011;13363;52.772;-3.890;2023-03-15T07:35:51;1.13;;;1.00;;
25435;SDS011;13363;52.772;-3.890;2023-03-15T07:38:17;0.77;;;0.77;;
25435;SDS011;13363;52.772;-3.890;2023-03-15T07:40:44;1.27;;;1.17;;
25435;SDS011;13363;52.772;-3.890;2023-03-15T07:43:10;1.37;;;1.27;;
25435;SDS011;13363;52.772;-3.890;2023-03-15T07:45:36;1.17;;;1.00;;
25435;SDS011;13363;52.772;-3.890;2023-03-15T07:48:02;3.03;;;1.20;;
25435;SDS011;13363;52.772;-3.890;2023-03-15T07:50:27;1.57;;;1.47;;
25435;SDS011;13363;52.772;-3.890;2023-03-15T07:52:53;1.57;;;1.20;;
25435;SDS011;13363;52.772;-3.890;2023-03-15T07:55:19;2.83;;;1.20;;
25435;SDS011;13363;52.772;-3.890;2023-03-15T07:57:45;1.60;;;1.37;;
25435;SDS011;13363;52.772;-3.890;2023-03-15T08:00:10;0.70;;;0.70;;
25435;SDS011;13363;52.772;-3.890;2023-03-15T08:02:37;4.00;;;0.93;;
25435;SDS011;13363;52.772;-3.890;2023-03-15T08:05:04;2.73;;;1.00;;
25435;SDS011;13363;52.772;-3.890;2023-03-15T08:07:30;0.80;;;0.80;;
25435;SDS011;13363;52.772;-3.890;2023-03-15T08:09:56;2.80;;;1.00;;
25435;SDS011;13363;52.772;-3.890;2023-03-15T08:12:25;1.90;;;1.00;;
25435;SDS011;13363;52.772;-3.890;2023-03-15T08:14:51;1.13;;;1.03;;
25435;SDS011;13363;52.772;-3.890;2023-03-15T08:17:17;1.20;;;1.10;;
25435;SDS011;13363;52.772;-3.890;2023-03-15T08:19:43;1.23;;;1.00;;
25435;SDS011;13363;52.772;-3.890;2023-03-15T08:22:09;1.70;;;1.10;;
25435;SDS011;13363;52.772;-3.890;2023-03-15T08:24:35;1.73;;;1.27;;
25435;SDS011;13363;52.772;-3.890;2023-03-15T08:27:01;1.13;;;0.90;;
25435;SDS011;13363;52.772;-3.890;2023-03-15T08:29:29;1.00;;;1.00;;
25435;SDS011;13363;52.772;-3.890;2023-03-15T08:31:55;1.37;;;1.27;;
25435;SDS011;13363;52.772;-3.890;2023-03-15T08:34:21;1.00;;;0.90;;
25435;SDS011;13363;52.772;-3.890;2023-03-15T08:36:47;1.43;;;1.03;;
25435;SDS011;13363;52.772;-3.890;2023-03-15T08:39:13;2.00;;;0.70;;
25435;SDS011;13363;52.772;-3.890;2023-03-15T08:41:39;1.27;;;1.17;;
25435;SDS011;13363;52.772;-3.890;2023-03-15T08:44:05;5.90;;;1.10;;
25435;SDS011;13363;52.772;-3.890;2023-03-15T08:46:32;2.20;;;1.07;;
25435;SDS011;13363;52.772;-3.890;2023-03-15T08:48:58;1.77;;;0.83;;
25435;SDS011;13363;52.772;-3.890;2023-03-15T08:51:24;1.87;;;0.90;;
25435;SDS011;13363;52.772;-3.890;2023-03-15T08:53:50;2.47;;;1.17;;
25435;SDS011;13363;52.772;-3.890;2023-03-15T08:56:17;1.17;;;0.90;;
25435;SDS011;13363;52.772;-3.890;2023-03-15T08:58:43;0.60;;;0.60;;
25435;SDS011;13363;52.772;-3.890;2023-03-15T09:01:10;1.73;;;1.13;;
25435;SDS011;13363;52.772;-3.890;2023-03-15T09:03:36;2.30;;;1.23;;
25435;SDS011;13363;52.772;-3.890;2023-03-15T09:06:02;4.90;;;1.20;;
25435;SDS011;13363;52.772;-3.890;2023-03-15T09:08:28;3.00;;;1.33;;
25435;SDS011;13363;52.772;-3.890;2023-03-15T09:10:57;2.73;;;1.17;;
25435;SDS011;13363;52.772;-3.890;2023-03-15T09:13:23;1.03;;;0.97;;
25435;SDS011;13363;52.772;-3.890;2023-03-15T09:15:50;1.93;;;1.20;;
25435;SDS011;13363;52.772;-3.890;2023-03-15T09:18:16;2.00;;;1.27;;
25435;SDS011;13363;52.772;-3.890;2023-03-15T09:20:43;1.33;;;1.23;;
25435;SDS011;13363;52.772;-3.890;2023-03-15T09:23:09;2.53;;;0.90;;
25435;SDS011;13363;52.772;-3.890;2023-03-15T09:25:35;1.70;;;1.30;;
25435;SDS011;13363;52.772;-3.890;2023-03-15T09:28:01;2.03;;;0.90;;
25435;SDS011;13363;52.772;-3.890;2023-03-15T09:30:28;1.87;;;1.47;;
25435;SDS011;13363;52.772;-3.890;2023-03-15T09:32:54;5.83;;;1.53;;
25435;SDS011;13363;52.772;-3.890;2023-03-15T09:35:19;1.50;;;1.33;;
25435;SDS011;13363;52.772;-3.890;2023-03-15T09:37:46;3.10;;;1.50;;
25435;SDS011;13363;52.772;-3.890;2023-03-15T09:40:18;1.70;;;1.23;;
25435;SDS011;13363;52.772;-3.890;2023-03-15T09:48:29;1.47;;;1.37;;
25435;SDS011;13363;52.772;-3.890;2023-03-15T09:52:12;2.23;;;1.10;;
25435;SDS011;13363;52.772;-3.890;2023-03-15T09:54:13;2.43;;;1.37;;
25435;SDS011;13363;52.772;-3.890;2023-03-15T09:59:33;4.20;;;1.73;;
25435;SDS011;13363;52.772;-3.890;2023-03-15T10:02:13;1.57;;;1.40;;
25435;SDS011;13363;52.772;-3.890;2023-03-15T10:04:47;1.60;;;1.50;;
25435;SDS011;13363;52.772;-3.890;2023-03-15T10:07:15;1.60;;;1.50;;
25435;SDS011;13363;52.772;-3.890;2023-03-15T10:09:41;1.73;;;1.63;;
25435;SDS011;13363;52.772;-3.890;2023-03-15T10:12:08;1.70;;;1.60;;
25435;SDS011;13363;52.772;-3.890;2023-03-15T10:20:48;3.47;;;1.40;;
25435;SDS011;13363;52.772;-3.890;2023-03-15T10:23:42;2.10;;;1.50;;
25435;SDS011;13363;52.772;-3.890;2023-03-15T10:26:14;2.00;;;1.83;;
25435;SDS011;13363;52.772;-3.890;2023-03-15T10:28:43;2.07;;;1.73;;
25435;SDS011;13363;52.772;-3.890;2023-03-15T10:31:13;2.03;;;1.53;;
25435;SDS011;13363;52.772;-3.890;2023-03-15T10:33:42;1.80;;;1.70;;
25435;SDS011;13363;52.772;-3.890;2023-03-15T10:36:14;2.27;;;1.53;;
25435;SDS011;13363;52.772;-3.890;2023-03-15T10:38:45;7.10;;;1.60;;
25435;SDS011;13363;52.772;-3.890;2023-03-15T10:41:13;2.00;;;1.50;;
25435;SDS011;13363;52.772;-3.890;2023-03-15T10:43:59;1.50;;;1.40;;
25435;SDS011;13363;52.772;-3.890;2023-03-15T10:46:27;4.77;;;1.73;;
25435;SDS011;13363;52.772;-3.890;2023-03-15T10:48:58;1.63;;;1.53;;
25435;SDS011;13363;52.772;-3.890;2023-03-15T10:51:46;1.30;;;1.23;;
25435;SDS011;13363;52.772;-3.890;2023-03-15T10:54:17;1.67;;;1.37;;
25435;SDS011;13363;52.772;-3.890;2023-03-15T10:59:23;1.73;;;1.63;;
25435;SDS011;13363;52.772;-3.890;2023-03-15T11:01:52;1.50;;;1.40;;
25435;SDS011;13363;52.772;-3.890;2023-03-15T11:04:32;1.30;;;1.30;;
25435;SDS011;13363;52.772;-3.890;2023-03-15T11:09:29;1.53;;;1.43;;
25435;SDS011;13363;52.772;-3.890;2023-03-15T11:12:06;1.80;;;1.70;;
25435;SDS011;13363;52.772;-3.890;2023-03-15T11:14:55;2.40;;;1.13;;
25435;SDS011;13363;52.772;-3.890;2023-03-15T11:17:25;1.07;;;0.90;;
25435;SDS011;13363;52.772;-3.890;2023-03-15T11:19:56;4.43;;;0.90;;
25435;SDS011;13363;52.772;-3.890;2023-03-15T11:22:37;3.50;;;0.80;;
25435;SDS011;13363;52.772;-3.890;2023-03-15T11:25:25;0.60;;;0.60;;
25435;SDS011;13363;52.772;-3.890;2023-03-15T11:27:55;1.40;;;0.90;;
25435;SDS011;13363;52.772;-3.890;2023-03-15T11:30:24;2.33;;;1.00;;
25435;SDS011;13363;52.772;-3.890;2023-03-15T11:32:53;2.30;;;1.10;;
25435;SDS011;13363;52.772;-3.890;2023-03-15T11:35:23;1.50;;;0.80;;
25435;SDS011;13363;52.772;-3.890;2023-03-15T11:37:57;1.77;;;1.10;;
25435;SDS011;13363;52.772;-3.890;2023-03-15T11:40:38;3.50;;;1.00;;
25435;SDS011;13363;52.772;-3.890;2023-03-15T11:45:50;0.83;;;0.83;;
25435;SDS011;13363;52.772;-3.890;2023-03-15T11:50:57;1.10;;;0.93;;
25435;SDS011;13363;52.772;-3.890;2023-03-15T11:53:24;3.13;;;1.10;;
25435;SDS011;13363;52.772;-3.890;2023-03-15T11:56:01;3.00;;;0.80;;
25435;SDS011;13363;52.772;-3.890;2023-03-15T11:59:07;3.03;;;0.90;;
25435;SDS011;13363;52.772;-3.890;2023-03-15T12:01:50;1.07;;;0.80;;
25435;SDS011;13363;52.772;-3.890;2023-03-15T12:04:25;1.27;;;0.77;;
25435;SDS011;13363;52.772;-3.890;2023-03-15T12:06:52;1.60;;;1.13;;
25435;SDS011;13363;52.772;-3.890;2023-03-15T12:11:59;0.57;;;0.57;;
25435;SDS011;13363;52.772;-3.890;2023-03-15T12:14:27;1.20;;;0.40;;
25435;SDS011;13363;52.772;-3.890;2023-03-15T12:22:51;0.60;;;0.60;;
25435;SDS011;13363;52.772;-3.890;2023-03-15T12:25:30;0.30;;;0.30;;
25435;SDS011;13363;52.772;-3.890;2023-03-15T12:28:02;0.70;;;0.70;;
25435;SDS011;13363;52.772;-3.890;2023-03-15T12:30:41;1.57;;;0.50;;
25435;SDS011;13363;52.772;-3.890;2023-03-15T12:33:15;1.47;;;0.50;;
25435;SDS011;13363;52.772;-3.890;2023-03-15T12:35:43;0.50;;;0.50;;
25435;SDS011;13363;52.772;-3.890;2023-03-15T12:38:17;0.40;;;0.40;;
25435;SDS011;13363;52.772;-3.890;2023-03-15T12:40:52;0.37;;;0.33;;
25435;SDS011;13363;52.772;-3.890;2023-03-15T12:49:13;0.50;;;0.43;;
25435;SDS011;13363;52.772;-3.890;2023-03-15T12:54:38;0.20;;;0.20;;
25435;SDS011;13363;52.772;-3.890;2023-03-15T12:57:21;0.20;;;0.20;;
25435;SDS011;13363;52.772;-3.890;2023-03-15T12:59:56;0.30;;;0.30;;
25435;SDS011;13363;52.772;-3.890;2023-03-15T13:02:35;0.30;;;0.30;;
25435;SDS011;13363;52.772;-3.890;2023-03-15T13:07:55;0.93;;;0.30;;
25435;SDS011;13363;52.772;-3.890;2023-03-15T13:15:54;0.40;;;0.30;;
25435;SDS011;13363;52.772;-3.890;2023-03-15T13:18:28;0.77;;;0.20;;
25435;SDS011;13363;52.772;-3.890;2023-03-15T13:23:27;0.43;;;0.43;;
25435;SDS011;13363;52.772;-3.890;2023-03-15T13:29:00;0.30;;;0.30;;
25435;SDS011;13363;52.772;-3.890;2023-03-15T13:31:38;0.20;;;0.20;;
25435;SDS011;13363;52.772;-3.890;2023-03-15T13:34:18;0.27;;;0.27;;
25435;SDS011;13363;52.772;-3.890;2023-03-15T13:36:57;0.27;;;0.27;;
25435;SDS011;13363;52.772;-3.890;2023-03-15T13:39:28;0.40;;;0.40;;
25435;SDS011;13363;52.772;-3.890;2023-03-15T13:42:00;0.40;;;0.30;;
25435;SDS011;13363;52.772;-3.890;2023-03-15T13:44:29;0.30;;;0.30;;
25435;SDS011;13363;52.772;-3.890;2023-03-15T13:46:55;0.30;;;0.30;;
25435;SDS011;13363;52.772;-3.890;2023-03-15T13:49:22;0.17;;;0.17;;
25435;SDS011;13363;52.772;-3.890;2023-03-15T13:51:48;0.13;;;0.13;;
25435;SDS011;13363;52.772;-3.890;2023-03-15T13:54:26;0.20;;;0.20;;
25435;SDS011;13363;52.772;-3.890;2023-03-15T13:56:57;0.33;;;0.20;;
25435;SDS011;13363;52.772;-3.890;2023-03-15T13:59:56;1.03;;;0.40;;
25435;SDS011;13363;52.772;-3.890;2023-03-15T14:05:09;0.13;;;0.10;;
25435;SDS011;13363;52.772;-3.890;2023-03-15T14:07:40;0.20;;;0.20;;
25435;SDS011;13363;52.772;-3.890;2023-03-15T14:12:53;0.30;;;0.30;;
25435;SDS011;13363;52.772;-3.890;2023-03-15T14:15:21;0.20;;;0.20;;
25435;SDS011;13363;52.772;-3.890;2023-03-15T14:20:40;0.30;;;0.30;;
25435;SDS011;13363;52.772;-3.890;2023-03-15T14:23:12;0.40;;;0.40;;
25435;SDS011;13363;52.772;-3.890;2023-03-15T14:25:40;0.10;;;0.10;;
25435;SDS011;13363;52.772;-3.890;2023-03-15T14:28:06;0.30;;;0.30;;
25435;SDS011;13363;52.772;-3.890;2023-03-15T14:30:38;0.23;;;0.20;;
25435;SDS011;13363;52.772;-3.890;2023-03-15T14:33:05;0.20;;;0.20;;
25435;SDS011;13363;52.772;-3.890;2023-03-15T14:38:19;0.20;;;0.20;;
25435;SDS011;13363;52.772;-3.890;2023-03-15T14:40:49;0.20;;;0.20;;
25435;SDS011;13363;52.772;-3.890;2023-03-15T14:43:16;0.20;;;0.20;;
25435;SDS011;13363;52.772;-3.890;2023-03-15T14:45:43;0.20;;;0.20;;
25435;SDS011;13363;52.772;-3.890;2023-03-15T14:50:51;1.40;;;0.70;;
25435;SDS011;13363;52.772;-3.890;2023-03-15T14:53:18;0.30;;;0.30;;
25435;SDS011;13363;52.772;-3.890;2023-03-15T14:55:47;0.20;;;0.20;;
25435;SDS011;13363;52.772;-3.890;2023-03-15T14:58:17;0.23;;;0.23;;
25435;SDS011;13363;52.772;-3.890;2023-03-15T15:00:46;0.30;;;0.30;;
25435;SDS011;13363;52.772;-3.890;2023-03-15T15:05:46;0.20;;;0.20;;
25435;SDS011;13363;52.772;-3.890;2023-03-15T15:08:15;0.93;;;0.60;;
25435;SDS011;13363;52.772;-3.890;2023-03-15T15:10:44;0.30;;;0.30;;
25435;SDS011;13363;52.772;-3.890;2023-03-15T15:13:16;0.40;;;0.27;;
25435;SDS011;13363;52.772;-3.890;2023-03-15T15:15:49;0.63;;;0.50;;
25435;SDS011;13363;52.772;-3.890;2023-03-15T15:18:15;0.47;;;0.30;;
25435;SDS011;13363;52.772;-3.890;2023-03-15T15:20:41;0.23;;;0.20;;
25435;SDS011;13363;52.772;-3.890;2023-03-15T15:23:16;0.30;;;0.30;;
25435;SDS011;13363;52.772;-3.890;2023-03-15T15:25:44;0.20;;;0.20;;
25435;SDS011;13363;52.772;-3.890;2023-03-15T15:28:12;0.53;;;0.37;;
25435;SDS011;13363;52.772;-3.890;2023-03-15T15:30:38;0.20;;;0.20;;
25435;SDS011;13363;52.772;-3.890;2023-03-15T15:33:04;0.87;;;0.20;;
25435;SDS011;13363;52.772;-3.890;2023-03-15T15:35:30;0.33;;;0.30;;
25435;SDS011;13363;52.772;-3.890;2023-03-15T15:37:56;0.20;;;0.20;;
25435;SDS011;13363;52.772;-3.890;2023-03-15T15:40:29;0.87;;;0.33;;
25435;SDS011;13363;52.772;-3.890;2023-03-15T15:42:56;0.33;;;0.33;;
25435;SDS011;13363;52.772;-3.890;2023-03-15T15:45:22;0.20;;;0.20;;
25435;SDS011;13363;52.772;-3.890;2023-03-15T15:47:51;0.30;;;0.30;;
25435;SDS011;13363;52.772;-3.890;2023-03-15T15:50:17;0.77;;;0.40;;
25435;SDS011;13363;52.772;-3.890;2023-03-15T15:52:45;0.33;;;0.20;;
25435;SDS011;13363;52.772;-3.890;2023-03-15T15:55:21;0.30;;;0.30;;
25435;SDS011;13363;52.772;-3.890;2023-03-15T15:57:50;2.17;;;0.60;;
25435;SDS011;13363;52.772;-3.890;2023-03-15T16:00:19;0.77;;;0.40;;
25435;SDS011;13363;52.772;-3.890;2023-03-15T16:02:48;0.20;;;0.20;;
25435;SDS011;13363;52.772;-3.890;2023-03-15T16:05:14;0.10;;;0.10;;